createdAt,value
2019-05-07T00:02:06.132Z,4.92
2019-05-07T00:04:39.485Z,4.10
2019-05-07T00:07:12.994Z,12.33
2019-05-07T00:09:45.490Z,5.03
2019-05-07T00:12:16.985Z,3.50
2019-05-07T00:14:58.944Z,5.45
2019-05-07T00:17:22.947Z,4.78
2019-05-07T00:19:54.660Z,2.87
2019-05-07T00:22:26.240Z,7.12
2019-05-07T00:25:03.143Z,4.37
2019-05-07T00:27:35.174Z,4.42
2019-05-07T00:30:08.333Z,6.65
2019-05-07T00:32:42.432Z,2.52
2019-05-07T00:35:18.044Z,2.80
2019-05-07T00:37:54.609Z,3.33
2019-05-07T00:40:42.459Z,5.95
2019-05-07T00:43:22.677Z,4.55
2019-05-07T00:46:02.276Z,4.80
2019-05-07T00:48:45.199Z,4.60
2019-05-07T00:51:28.591Z,4.17
2019-05-07T00:54:03.308Z,6.90
2019-05-07T00:56:36.664Z,5.12
2019-05-07T00:59:07.207Z,6.35
2019-05-07T01:01:39.787Z,4.22
2019-05-07T01:04:15.860Z,4.72
2019-05-07T01:06:49.855Z,3.58
2019-05-07T01:09:22.900Z,6.80
2019-05-07T01:11:54.247Z,4.45
2019-05-07T01:14:27.032Z,5.62
2019-05-07T01:16:59.699Z,5.00
2019-05-07T01:19:32.811Z,5.40
2019-05-07T01:22:03.609Z,4.25
2019-05-07T01:24:37.724Z,4.15
2019-05-07T01:27:10.188Z,4.15
2019-05-07T01:29:43.039Z,6.25
2019-05-07T01:32:27.258Z,5.67
2019-05-07T01:35:03.784Z,4.67
2019-05-07T01:37:35.775Z,5.35
2019-05-07T01:40:07.732Z,4.67
2019-05-07T01:42:42.187Z,2.60
2019-05-07T01:45:16.032Z,4.10
2019-05-07T01:47:49.375Z,5.78
2019-05-07T01:50:23.373Z,4.30
2019-05-07T01:52:57.820Z,4.83
2019-05-07T01:55:31.425Z,4.58
2019-05-07T01:58:06.288Z,4.62
2019-05-07T02:00:42.442Z,5.42
2019-05-07T02:03:58.795Z,5.70
2019-05-07T02:06:38.360Z,6.60
2019-05-07T02:09:34.036Z,6.67
2019-05-07T02:12:33.405Z,6.30
2019-05-07T02:15:08.053Z,4.65
2019-05-07T02:17:39.850Z,5.83
2019-05-07T02:20:13.101Z,6.42
2019-05-07T02:22:46.896Z,4.53
2019-05-07T02:25:18.751Z,3.67
2019-05-07T02:27:49.252Z,2.90
2019-05-07T02:30:23.727Z,5.65
2019-05-07T02:32:53.983Z,4.35
2019-05-07T02:35:33.338Z,4.60
2019-05-07T02:38:14.004Z,4.70
2019-05-07T02:40:48.865Z,7.47
2019-05-07T02:43:19.390Z,2.65
2019-05-07T02:46:20.698Z,3.47
2019-05-07T02:48:42.873Z,4.65
2019-05-07T02:51:23.933Z,6.03
2019-05-07T02:54:03.610Z,4.42
2019-05-07T02:56:33.551Z,3.75
2019-05-07T02:59:04.444Z,4.55
2019-05-07T03:01:36.251Z,4.87
2019-05-07T03:04:06.841Z,3.65
2019-05-07T03:06:37.401Z,3.27
2019-05-07T03:09:08.089Z,6.47
2019-05-07T03:11:38.645Z,5.58
2019-05-07T03:14:09.881Z,8.00
2019-05-07T03:16:47.465Z,4.83
2019-05-07T03:19:13.456Z,5.20
2019-05-07T03:21:54.552Z,5.08
2019-05-07T03:24:34.352Z,3.40
2019-05-07T03:27:05.023Z,9.53
2019-05-07T03:29:37.430Z,5.75
2019-05-07T03:32:39.114Z,7.53
2019-05-07T03:35:29.776Z,5.28
2019-05-07T03:38:03.565Z,5.17
2019-05-07T03:40:34.237Z,5.70
2019-05-07T03:43:06.034Z,7.83
2019-05-07T03:45:54.026Z,5.40
2019-05-07T03:48:25.827Z,6.55
2019-05-07T03:50:56.283Z,5.83
2019-05-07T03:53:26.746Z,4.72
2019-05-07T03:55:57.253Z,5.40
2019-05-07T03:58:39.641Z,3.35
2019-05-07T04:01:13.116Z,6.83
2019-05-07T04:03:44.387Z,3.45
2019-05-07T04:06:14.578Z,4.42
2019-05-07T04:08:46.812Z,5.83
2019-05-07T04:11:17.235Z,5.05
2019-05-07T04:13:47.760Z,8.40
2019-05-07T04:16:18.262Z,8.65
2019-05-07T04:18:48.792Z,9.15
2019-05-07T04:21:19.305Z,8.00
2019-05-07T04:23:54.078Z,5.30
2019-05-07T04:26:33.802Z,7.53
2019-05-07T04:29:06.486Z,5.55
2019-05-07T04:31:43.033Z,5.37
2019-05-07T04:34:24.341Z,4.10
2019-05-07T04:36:54.732Z,7.10
2019-05-07T04:39:25.953Z,7.12
2019-05-07T04:41:57.139Z,6.78
2019-05-07T04:44:27.677Z,5.03
2019-05-07T04:46:58.165Z,5.50
2019-05-07T04:49:28.693Z,5.85
2019-05-07T04:52:11.267Z,8.93
2019-05-07T04:54:39.279Z,6.92
2019-05-07T04:57:25.449Z,5.28
2019-05-07T04:59:57.395Z,5.08
2019-05-07T05:02:39.978Z,6.70
2019-05-07T05:05:12.958Z,8.65
2019-05-07T05:07:43.273Z,5.58
2019-05-07T05:10:14.071Z,9.03
2019-05-07T05:12:44.660Z,5.17
2019-05-07T05:15:16.415Z,7.42
2019-05-07T05:17:50.651Z,3.45
2019-05-07T05:20:22.210Z,5.75
2019-05-07T05:23:07.948Z,5.42
2019-05-07T05:25:39.969Z,6.62
2019-05-07T05:28:12.391Z,4.08
2019-05-07T05:30:47.581Z,9.33
2019-05-07T05:33:18.212Z,7.42
2019-05-07T05:35:48.720Z,5.10
2019-05-07T05:38:21.946Z,6.90
2019-05-07T05:40:53.619Z,8.80
2019-05-07T05:43:43.295Z,9.68
2019-05-07T05:46:14.204Z,8.43
2019-05-07T05:48:44.759Z,9.53
2019-05-07T05:51:46.627Z,8.18
2019-05-07T05:54:36.122Z,4.87
2019-05-07T05:57:23.137Z,7.35
2019-05-07T06:00:22.102Z,11.57
2019-05-07T06:03:27.042Z,7.37
2019-05-07T06:06:06.552Z,7.30
2019-05-07T06:08:45.377Z,3.72
2019-05-07T06:11:25.872Z,5.00
2019-05-07T06:14:18.551Z,9.18
2019-05-07T06:17:02.009Z,4.35
2019-05-07T06:19:42.297Z,8.05
2019-05-07T06:22:23.167Z,2.90
2019-05-07T06:25:03.145Z,5.42
2019-05-07T06:27:35.172Z,4.58
2019-05-07T06:30:08.354Z,5.83
2019-05-07T06:32:39.591Z,5.35
2019-05-07T06:35:12.263Z,6.05
2019-05-07T06:37:44.859Z,7.67
2019-05-07T06:40:29.481Z,9.68
2019-05-07T06:43:16.152Z,6.78
2019-05-07T06:45:51.914Z,4.42
2019-05-07T06:48:37.653Z,3.27
2019-05-07T06:50:57.449Z,5.85
2019-05-07T06:53:32.963Z,2.33
2019-05-07T06:56:06.552Z,4.42
2019-05-07T06:58:43.019Z,3.22
2019-05-07T07:01:34.884Z,3.47
2019-05-07T07:04:22.344Z,3.27
2019-05-07T07:07:26.598Z,2.92
2019-05-07T07:10:17.155Z,4.90
2019-05-07T07:12:47.775Z,4.62
2019-05-07T07:15:18.441Z,4.65
2019-05-07T07:18:00.220Z,6.45
2019-05-07T07:20:35.348Z,2.50
2019-05-07T07:23:08.058Z,4.62
2019-05-07T07:25:40.148Z,3.15
2019-05-07T07:28:12.324Z,5.62
2019-05-07T07:31:13.117Z,4.20
2019-05-07T07:33:47.356Z,5.72
2019-05-07T07:36:23.183Z,6.28
2019-05-07T07:38:55.484Z,4.30
2019-05-07T07:41:36.630Z,5.67
2019-05-07T07:44:08.244Z,4.40
2019-05-07T07:46:43.309Z,4.47
2019-05-07T07:49:25.423Z,5.05
2019-05-07T07:52:04.370Z,3.05
2019-05-07T07:54:35.889Z,2.67
2019-05-07T07:57:27.207Z,3.42
2019-05-07T08:00:20.208Z,3.10
2019-05-07T08:02:56.287Z,3.47
2019-05-07T08:05:27.324Z,4.78
2019-05-07T08:08:02.146Z,7.17
2019-05-07T08:10:33.080Z,4.30
2019-05-07T08:13:03.710Z,5.03
2019-05-07T08:15:35.297Z,4.47
2019-05-07T08:18:06.605Z,2.80
2019-05-07T08:20:38.556Z,6.80
2019-05-07T08:23:09.207Z,6.20
2019-05-07T08:25:49.108Z,3.87
2019-05-07T08:28:23.209Z,6.78
2019-05-07T08:31:32.283Z,5.85
2019-05-07T08:34:21.828Z,5.72
2019-05-07T08:36:53.985Z,8.20
2019-05-07T08:39:25.904Z,5.55
2019-05-07T08:41:59.101Z,5.62
2019-05-07T08:44:43.122Z,6.15
2019-05-07T08:47:28.272Z,3.90
2019-05-07T08:49:58.770Z,7.37
2019-05-07T08:52:32.727Z,6.70
2019-05-07T08:55:04.568Z,6.08
2019-05-07T08:57:36.647Z,5.92
2019-05-07T09:00:12.438Z,7.25
2019-05-07T09:02:43.951Z,7.42
2019-05-07T09:05:15.844Z,6.05
2019-05-07T09:07:46.359Z,5.75
2019-05-07T09:10:18.044Z,5.42
2019-05-07T09:12:52.621Z,5.00
2019-05-07T09:15:24.448Z,4.58
2019-05-07T09:17:54.871Z,4.15
2019-05-07T09:20:26.256Z,3.95
2019-05-07T09:22:57.931Z,6.58
2019-05-07T09:25:28.497Z,3.50
2019-05-07T09:28:00.047Z,4.35
2019-05-07T09:30:56.070Z,4.37
2019-05-07T09:33:43.052Z,4.60
2019-05-07T09:36:22.610Z,6.08
2019-05-07T09:38:58.419Z,5.15
2019-05-07T09:41:27.832Z,5.70
2019-05-07T09:43:59.543Z,5.95
2019-05-07T09:46:32.553Z,6.35
2019-05-07T09:49:03.337Z,6.92
2019-05-07T09:51:34.939Z,6.87
2019-05-07T09:54:05.639Z,5.62
2019-05-07T09:56:36.809Z,5.60
2019-05-07T09:59:07.395Z,5.37
2019-05-07T10:01:37.955Z,5.78
2019-05-07T10:04:09.585Z,6.05
2019-05-07T10:06:40.124Z,6.05
2019-05-07T10:09:12.725Z,6.03
2019-05-07T10:11:52.338Z,6.78
2019-05-07T10:14:22.464Z,6.62
2019-05-07T10:17:07.347Z,6.45
2019-05-07T10:19:37.948Z,7.80
2019-05-07T10:22:08.489Z,7.03
2019-05-07T10:24:39.011Z,7.40
2019-05-07T10:27:12.484Z,8.05
2019-05-07T10:29:43.848Z,7.70
2019-05-07T10:32:14.439Z,7.67
2019-05-07T10:34:45.220Z,7.28
2019-05-07T10:37:16.996Z,7.95
2019-05-07T10:39:47.831Z,8.03
2019-05-07T10:42:18.513Z,7.78
2019-05-07T10:45:08.295Z,11.03
2019-05-07T10:47:45.927Z,9.50
2019-05-07T10:50:38.007Z,8.50
2019-05-07T10:53:01.928Z,9.33
2019-05-07T10:55:32.742Z,10.20
2019-05-07T10:58:05.601Z,9.35
2019-05-07T11:00:36.352Z,10.18
2019-05-07T11:03:07.019Z,10.90
2019-05-07T11:05:37.515Z,13.25
2019-05-07T11:08:08.175Z,14.13
2019-05-07T11:10:39.360Z,14.03
2019-05-07T11:13:10.114Z,12.70
2019-05-07T11:15:42.911Z,14.33
2019-05-07T11:18:51.804Z,12.13
2019-05-07T11:21:33.452Z,14.45
2019-05-07T11:24:04.506Z,10.95
2019-05-07T11:26:36.621Z,9.85
2019-05-07T11:29:07.240Z,12.07
2019-05-07T11:31:38.786Z,7.95
2019-05-07T11:34:13.556Z,6.80
2019-05-07T11:36:43.544Z,6.72
2019-05-07T11:39:14.085Z,5.80
2019-05-07T11:42:03.725Z,6.40
2019-05-07T11:44:34.563Z,7.75
2019-05-07T11:47:23.625Z,8.35
2019-05-07T11:50:14.789Z,8.28
2019-05-07T11:52:51.793Z,7.33
2019-05-07T11:55:22.552Z,6.87
2019-05-07T11:57:53.469Z,7.92
2019-05-07T12:00:46.804Z,8.65
2019-05-07T12:03:17.315Z,9.50
2019-05-07T12:05:47.888Z,11.70
2019-05-07T12:08:18.352Z,12.75
2019-05-07T12:10:48.818Z,12.68
2019-05-07T12:13:19.316Z,14.15
2019-05-07T12:15:51.611Z,13.68
2019-05-07T12:18:22.804Z,14.60
2019-05-07T12:20:54.191Z,11.57
2019-05-07T12:23:24.924Z,12.55
2019-05-07T12:25:55.455Z,13.05
2019-05-07T12:28:26.156Z,12.05
2019-05-07T12:31:18.696Z,11.10
2019-05-07T12:33:58.100Z,11.28
2019-05-07T12:36:28.535Z,11.22
2019-05-07T12:38:59.110Z,10.23
2019-05-07T12:41:29.711Z,9.78
2019-05-07T12:44:02.569Z,9.20
2019-05-07T12:46:34.759Z,11.50
2019-05-07T12:49:06.562Z,11.20
2019-05-07T12:51:50.580Z,9.13
2019-05-07T12:54:27.621Z,8.58
2019-05-07T12:56:58.154Z,8.50
2019-05-07T12:59:28.689Z,6.78
2019-05-07T13:02:26.763Z,7.85
2019-05-07T13:04:45.501Z,7.33
2019-05-07T13:07:33.845Z,6.83
2019-05-07T13:10:04.637Z,6.35
2019-05-07T13:12:35.281Z,6.60
2019-05-07T13:15:06.805Z,6.28
2019-05-07T13:17:37.421Z,6.35
2019-05-07T13:20:07.962Z,6.55
2019-05-07T13:22:38.417Z,8.03
2019-05-07T13:25:09.352Z,6.95
2019-05-07T13:27:40.270Z,8.03
2019-05-07T13:30:11.867Z,7.80
2019-05-07T13:32:45.009Z,10.08
2019-05-07T13:35:15.614Z,8.68
2019-05-07T13:37:51.498Z,8.15
2019-05-07T13:40:42.326Z,8.50
2019-05-07T13:43:19.744Z,8.63
2019-05-07T13:46:11.875Z,8.35
2019-05-07T13:48:45.488Z,8.25
2019-05-07T13:51:15.066Z,9.05
2019-05-07T13:53:47.393Z,9.38
2019-05-07T13:56:19.107Z,9.05
2019-05-07T13:58:49.779Z,9.60
2019-05-07T14:01:35.653Z,10.30
2019-05-07T14:04:06.443Z,9.75
2019-05-07T14:06:39.203Z,9.88
2019-05-07T14:09:23.983Z,8.85
2019-05-07T14:11:52.963Z,9.63
2019-05-07T14:14:23.752Z,9.80
2019-05-07T14:16:54.391Z,9.30
2019-05-07T14:19:26.075Z,10.72
2019-05-07T14:22:16.362Z,11.10
2019-05-07T14:24:53.028Z,10.40
2019-05-07T14:27:26.060Z,11.93
2019-05-07T14:29:56.782Z,8.08
2019-05-07T14:33:06.121Z,8.48
2019-05-07T14:35:56.291Z,10.03
2019-05-07T14:38:32.094Z,9.85
2019-05-07T14:41:02.836Z,10.08
2019-05-07T14:43:57.712Z,10.20
2019-05-07T14:46:43.646Z,9.65
2019-05-07T14:49:02.637Z,11.88
2019-05-07T14:51:32.930Z,9.98
2019-05-07T14:54:05.054Z,11.00
2019-05-07T14:56:36.805Z,12.28
2019-05-07T14:59:07.459Z,10.75
2019-05-07T15:01:38.074Z,11.83
2019-05-07T15:04:08.735Z,9.95
2019-05-07T15:06:39.353Z,10.00
2019-05-07T15:09:12.220Z,11.38
2019-05-07T15:11:43.308Z,13.32
2019-05-07T15:14:14.036Z,11.57
2019-05-07T15:16:44.637Z,11.83
2019-05-07T15:19:16.261Z,10.32
2019-05-07T15:21:47.988Z,10.95
2019-05-07T15:24:21.948Z,12.00
2019-05-07T15:26:54.704Z,11.63
2019-05-07T15:29:25.663Z,12.78
2019-05-07T15:31:59.982Z,11.85
2019-05-07T15:34:32.651Z,15.23
2019-05-07T15:37:02.885Z,11.43
2019-05-07T15:39:33.616Z,10.32
2019-05-07T15:42:04.336Z,10.18
2019-05-07T15:44:35.022Z,10.90
2019-05-07T15:47:11.714Z,11.40
2019-05-07T15:49:42.361Z,9.98
2019-05-07T15:52:22.230Z,11.40
2019-05-07T15:54:53.980Z,10.40
2019-05-07T15:57:27.410Z,13.38
2019-05-07T16:00:06.958Z,10.78
2019-05-07T16:02:41.008Z,10.72
2019-05-07T16:05:12.381Z,12.20
2019-05-07T16:07:44.209Z,9.08
2019-05-07T16:10:15.202Z,7.22
2019-05-07T16:12:49.072Z,7.90
2019-05-07T16:15:19.810Z,8.28
2019-05-07T16:17:57.979Z,8.95
2019-05-07T16:20:28.497Z,7.70
2019-05-07T16:23:13.970Z,8.43
2019-05-07T16:25:34.205Z,9.15
2019-05-07T16:28:05.161Z,7.50
2019-05-07T16:30:35.979Z,7.60
2019-05-07T16:33:06.459Z,7.40
2019-05-07T16:35:36.932Z,10.00
2019-05-07T16:38:07.507Z,8.78
2019-05-07T16:40:38.025Z,7.53
2019-05-07T16:43:08.656Z,8.70
2019-05-07T16:45:39.187Z,7.45
2019-05-07T16:48:11.753Z,7.60
2019-05-07T16:50:42.304Z,6.80
2019-05-07T16:53:25.810Z,7.40
2019-05-07T16:55:47.032Z,7.00
2019-05-07T16:58:25.138Z,8.38
2019-05-07T17:01:00.225Z,6.00
2019-05-07T17:03:37.980Z,4.58
2019-05-07T17:06:08.457Z,7.53
2019-05-07T17:08:52.591Z,5.83
2019-05-07T17:11:23.096Z,5.78
2019-05-07T17:13:53.612Z,4.90
2019-05-07T17:16:24.261Z,5.03
2019-05-07T17:18:54.767Z,4.03
2019-05-07T17:21:25.336Z,4.17
2019-05-07T17:23:56.717Z,4.40
2019-05-07T17:26:27.211Z,4.00
2019-05-07T17:28:57.782Z,3.75
2019-05-07T17:31:28.347Z,4.97
2019-05-07T17:33:58.801Z,3.52
2019-05-07T17:36:29.439Z,4.22
2019-05-07T17:38:59.887Z,3.62
2019-05-07T17:41:32.310Z,4.08
2019-05-07T17:44:02.905Z,4.20
2019-05-07T17:46:33.371Z,4.78
2019-05-07T17:49:03.916Z,4.90
2019-05-07T17:51:44.312Z,2.80
2019-05-07T17:54:15.032Z,2.90
2019-05-07T17:56:45.695Z,3.70
2019-05-07T17:59:16.930Z,4.37
2019-05-07T18:01:55.866Z,3.92
2019-05-07T18:04:26.577Z,10.90
2019-05-07T18:06:57.071Z,5.25
2019-05-07T18:09:27.530Z,3.72
2019-05-07T18:11:58.898Z,4.67
2019-05-07T18:14:29.348Z,4.10
2019-05-07T18:17:18.948Z,4.80
2019-05-07T18:19:49.988Z,4.87
2019-05-07T18:22:22.146Z,5.47
2019-05-07T18:24:52.952Z,4.35
2019-05-07T18:27:24.720Z,6.12
2019-05-07T18:29:55.368Z,4.65
2019-05-07T18:32:32.507Z,4.55
2019-05-07T18:35:03.238Z,4.53
2019-05-07T18:37:34.220Z,5.85
2019-05-07T18:40:04.844Z,4.95
2019-05-07T18:42:35.495Z,4.50
2019-05-07T18:45:06.444Z,4.60
2019-05-07T18:47:36.989Z,7.83
2019-05-07T18:50:07.701Z,6.83
2019-05-07T18:52:38.258Z,13.93
2019-05-07T18:55:09.509Z,13.08
2019-05-07T18:57:42.070Z,7.65
2019-05-07T19:00:23.405Z,5.03
2019-05-07T19:02:54.120Z,7.33
2019-05-07T19:05:25.564Z,6.37
2019-05-07T19:08:07.034Z,6.08
2019-05-07T19:10:29.236Z,6.47
2019-05-07T19:12:59.918Z,7.30
2019-05-07T19:15:32.714Z,6.25
2019-05-07T19:18:02.840Z,6.53
2019-05-07T19:20:33.403Z,6.92
2019-05-07T19:23:04.020Z,8.40
2019-05-07T19:25:34.653Z,6.78
2019-05-07T19:28:05.353Z,8.70
2019-05-07T19:30:36.226Z,9.30
2019-05-07T19:33:07.611Z,7.80
2019-05-07T19:35:38.020Z,6.72
2019-05-07T19:38:08.529Z,8.93
2019-05-07T19:40:39.093Z,8.45
2019-05-07T19:43:09.651Z,7.28
2019-05-07T19:45:41.847Z,10.80
2019-05-07T19:48:12.583Z,10.38
2019-05-07T19:50:43.196Z,7.08
2019-05-07T19:53:13.863Z,7.58
2019-05-07T19:56:05.950Z,9.13
2019-05-07T19:58:37.600Z,8.60
2019-05-07T20:01:11.857Z,7.75
2019-05-07T20:03:43.431Z,8.45
2019-05-07T20:06:14.652Z,10.85
2019-05-07T20:08:45.219Z,12.58
2019-05-07T20:11:22.505Z,11.95
2019-05-07T20:13:53.637Z,13.83
2019-05-07T20:16:25.028Z,12.23
2019-05-07T20:18:56.716Z,15.85
2019-05-07T20:21:27.307Z,14.95
2019-05-07T20:23:57.815Z,14.68
2019-05-07T20:26:28.268Z,15.65
2019-05-07T20:28:58.712Z,16.27
2019-05-07T20:31:29.538Z,15.23
2019-05-07T20:34:02.205Z,16.52
2019-05-07T20:36:32.904Z,16.52
2019-05-07T20:39:06.748Z,18.45
2019-05-07T20:41:37.416Z,18.17
2019-05-07T20:44:08.000Z,20.23
2019-05-07T20:46:42.132Z,21.10
2019-05-07T20:49:13.342Z,17.90
2019-05-07T20:51:43.760Z,18.25
2019-05-07T20:54:33.308Z,18.17
2019-05-07T20:57:06.609Z,17.90
2019-05-07T20:59:37.060Z,18.92
2019-05-07T21:02:07.719Z,16.50
2019-05-07T21:04:38.261Z,17.60
2019-05-07T21:07:11.664Z,17.77
2019-05-07T21:09:42.296Z,17.70
2019-05-07T21:12:13.050Z,17.48
2019-05-07T21:14:43.672Z,17.45
2019-05-07T21:17:14.164Z,18.25
2019-05-07T21:19:44.681Z,17.48
2019-05-07T21:22:15.172Z,16.10
2019-05-07T21:24:46.974Z,18.07
2019-05-07T21:27:17.712Z,16.42
2019-05-07T21:29:48.083Z,16.02
2019-05-07T21:32:18.615Z,19.12
2019-05-07T21:34:49.187Z,17.98
2019-05-07T21:37:19.701Z,19.50
2019-05-07T21:39:50.331Z,16.50
2019-05-07T21:42:22.829Z,16.05
2019-05-07T21:44:53.788Z,18.95
2019-05-07T21:47:24.242Z,16.82
2019-05-07T21:49:55.254Z,18.60
2019-05-07T21:52:29.508Z,20.62
2019-05-07T21:55:06.152Z,19.90
2019-05-07T21:57:52.344Z,18.67
2019-05-07T22:00:38.059Z,18.90
2019-05-07T22:03:13.390Z,17.92
2019-05-07T22:05:45.414Z,19.25
2019-05-07T22:08:16.000Z,17.87
2019-05-07T22:10:48.195Z,20.97
2019-05-07T22:13:18.762Z,19.67
2019-05-07T22:15:49.161Z,20.15
2019-05-07T22:18:19.553Z,18.37
2019-05-07T22:20:52.086Z,19.27
2019-05-07T22:23:24.456Z,20.57
2019-05-07T22:25:54.155Z,21.27
2019-05-07T22:28:26.199Z,20.90
2019-05-07T22:31:31.064Z,22.35
2019-05-07T22:34:26.662Z,19.85
2019-05-07T22:36:57.733Z,21.05
2019-05-07T22:39:45.227Z,21.05
2019-05-07T22:42:17.256Z,21.25
2019-05-07T22:44:47.732Z,22.13
2019-05-07T22:47:22.513Z,20.43
2019-05-07T22:49:54.018Z,21.10
2019-05-07T22:52:24.648Z,23.02
2019-05-07T22:54:55.096Z,20.37
2019-05-07T22:57:34.855Z,21.02
2019-05-07T23:00:06.473Z,20.95
2019-05-07T23:02:38.641Z,20.92
2019-05-07T23:05:09.186Z,21.65
2019-05-07T23:07:41.813Z,20.77
2019-05-07T23:10:11.984Z,23.10
2019-05-07T23:12:43.234Z,23.35
2019-05-07T23:15:14.728Z,22.95
2019-05-07T23:17:45.160Z,22.95
2019-05-07T23:20:15.732Z,22.93
2019-05-07T23:22:46.161Z,22.70
2019-05-07T23:25:16.648Z,23.02
2019-05-07T23:27:47.207Z,26.97
2019-05-07T23:30:17.648Z,22.65
2019-05-07T23:32:48.099Z,25.48
2019-05-07T23:35:18.660Z,22.73
2019-05-07T23:37:49.164Z,22.30
2019-05-07T23:40:26.845Z,22.95
2019-05-07T23:42:59.032Z,22.60
2019-05-07T23:45:29.457Z,22.07
2019-05-07T23:47:59.975Z,23.15
2019-05-07T23:50:32.273Z,22.05
2019-05-07T23:53:02.692Z,23.07
2019-05-07T23:55:33.215Z,22.95
2019-05-07T23:58:03.796Z,20.48
